createdAt,value
2023-02-24T00:02:01.230Z,8.65
2023-02-24T00:04:32.130Z,8.77
2023-02-24T00:06:59.950Z,8.59
2023-02-24T00:09:30.464Z,8.68
2023-02-24T00:12:06.226Z,8.71
2023-02-24T00:14:36.253Z,8.66
2023-02-24T00:17:03.895Z,8.51
2023-02-24T00:19:34.825Z,8.77
2023-02-24T00:22:04.269Z,8.63
2023-02-24T00:24:32.383Z,8.57
2023-02-24T00:27:02.073Z,8.57
2023-02-24T00:29:30.210Z,8.58
2023-02-24T00:32:02.778Z,8.61
2023-02-24T00:34:33.946Z,8.55
2023-02-24T00:37:02.014Z,8.51
2023-02-24T00:39:34.110Z,8.48
2023-02-24T00:42:06.770Z,8.55
2023-02-24T00:44:44.870Z,8.45
2023-02-24T00:47:13.642Z,8.45
2023-02-24T00:49:43.235Z,8.46
2023-02-24T00:52:16.360Z,8.45
2023-02-24T00:54:44.870Z,8.43
2023-02-24T00:57:12.506Z,8.50
2023-02-24T00:59:40.267Z,8.44
2023-02-24T01:02:08.107Z,8.41
2023-02-24T01:04:37.725Z,8.44
2023-02-24T01:07:10.620Z,8.60
2023-02-24T01:09:41.438Z,8.35
2023-02-24T01:12:47.000Z,8.55
2023-02-24T01:15:16.593Z,8.47
2023-02-24T01:17:43.686Z,8.38
2023-02-24T01:20:20.852Z,8.49
2023-02-24T01:22:57.602Z,8.43
2023-02-24T01:25:25.153Z,8.50
2023-02-24T01:27:53.913Z,8.44
2023-02-24T01:30:21.180Z,8.33
2023-02-24T01:32:48.758Z,8.42
2023-02-24T01:35:16.437Z,8.39
2023-02-24T01:37:43.404Z,8.47
2023-02-24T01:40:18.698Z,8.33
2023-02-24T01:42:47.655Z,8.24
2023-02-24T01:45:22.044Z,8.11
2023-02-24T01:47:49.536Z,8.13
2023-02-24T01:50:21.586Z,8.20
2023-02-24T01:52:56.070Z,8.33
2023-02-24T01:55:34.776Z,8.15
2023-02-24T01:58:09.499Z,8.07
2023-02-24T02:00:45.025Z,7.94
2023-02-24T02:03:20.384Z,7.96
2023-02-24T02:05:48.562Z,8.12
2023-02-24T02:08:19.405Z,8.00
2023-02-24T02:10:47.078Z,7.94
2023-02-24T02:13:21.171Z,8.30
2023-02-24T02:16:13.790Z,8.10
2023-02-24T02:19:13.619Z,8.01
2023-02-24T02:22:11.132Z,8.13
2023-02-24T02:25:16.571Z,8.20
2023-02-24T02:27:58.152Z,8.23
2023-02-24T02:30:49.514Z,8.08
2023-02-24T02:33:21.535Z,8.17
2023-02-24T02:36:07.010Z,8.20
2023-02-24T02:38:57.557Z,8.12
2023-02-24T02:41:31.288Z,8.12
2023-02-24T02:44:39.788Z,8.19
2023-02-24T02:47:23.028Z,8.14
2023-02-24T02:50:02.126Z,8.12
2023-02-24T02:52:55.120Z,8.18
2023-02-24T02:55:43.015Z,8.13
2023-02-24T02:58:20.073Z,8.09
2023-02-24T03:01:04.403Z,8.15
2023-02-24T03:03:45.581Z,8.30
2023-02-24T03:06:31.138Z,8.22
2023-02-24T03:09:25.768Z,8.17
2023-02-24T03:11:59.752Z,8.05
2023-02-24T03:14:37.549Z,8.21
2023-02-24T03:17:12.797Z,8.17
2023-02-24T03:19:40.186Z,8.11
2023-02-24T03:22:24.825Z,8.03
2023-02-24T03:24:52.896Z,8.03
2023-02-24T03:27:41.424Z,7.87
2023-02-24T03:30:41.191Z,7.94
2023-02-24T03:33:30.058Z,8.02
2023-02-24T03:36:01.629Z,8.06
2023-02-24T03:38:32.981Z,8.00
2023-02-24T03:41:00.193Z,8.14
2023-02-24T03:43:39.547Z,8.28
2023-02-24T03:46:06.854Z,8.14
2023-02-24T03:48:38.983Z,8.25
2023-02-24T03:51:05.945Z,8.21
2023-02-24T03:54:30.814Z,8.49
2023-02-24T03:57:54.814Z,8.39
2023-02-24T04:00:40.218Z,8.26
2023-02-24T04:04:00.301Z,8.37
2023-02-24T04:06:55.799Z,8.21
2023-02-24T04:09:33.299Z,8.29
2023-02-24T04:12:27.033Z,8.28
2023-02-24T04:15:09.131Z,8.33
2023-02-24T04:17:46.593Z,8.40
2023-02-24T04:20:18.232Z,8.30
2023-02-24T04:22:54.556Z,8.31
2023-02-24T04:25:24.748Z,8.24
2023-02-24T04:27:54.801Z,8.24
2023-02-24T04:30:25.378Z,8.39
2023-02-24T04:32:52.366Z,8.44
2023-02-24T04:35:22.997Z,8.19
2023-02-24T04:37:50.928Z,8.24
2023-02-24T04:40:22.131Z,8.26
2023-02-24T04:42:52.053Z,8.32
2023-02-24T04:45:23.456Z,8.43
2023-02-24T04:47:56.192Z,8.41
2023-02-24T04:50:25.903Z,8.40
2023-02-24T04:53:00.897Z,8.33
2023-02-24T04:55:33.200Z,8.58
2023-02-24T04:58:01.685Z,8.54
2023-02-24T05:00:41.281Z,8.40
2023-02-24T05:03:12.526Z,8.44
2023-02-24T05:05:42.866Z,8.44
2023-02-24T05:08:11.043Z,8.56
2023-02-24T05:10:44.771Z,8.53
2023-02-24T05:13:18.933Z,8.85
2023-02-24T05:15:48.049Z,8.87
2023-02-24T05:18:20.355Z,8.75
2023-02-24T05:21:09.533Z,8.56
2023-02-24T05:23:40.808Z,8.35
2023-02-24T05:26:09.054Z,8.26
2023-02-24T05:28:40.980Z,8.09
2023-02-24T05:31:15.228Z,8.00
2023-02-24T05:33:44.859Z,7.85
2023-02-24T05:36:17.671Z,7.98
2023-02-24T05:38:50.206Z,8.03
2023-02-24T05:41:18.793Z,8.06
2023-02-24T05:43:54.923Z,8.00
2023-02-24T05:46:33.723Z,8.05
2023-02-24T05:49:10.020Z,8.08
2023-02-24T05:51:39.198Z,8.28
2023-02-24T05:54:09.918Z,8.32
2023-02-24T05:56:39.649Z,8.39
2023-02-24T05:59:09.120Z,8.47
2023-02-24T06:01:47.253Z,8.54
2023-02-24T06:04:39.116Z,8.74
2023-02-24T06:07:21.045Z,8.63
2023-02-24T06:09:50.644Z,8.64
2023-02-24T06:12:18.542Z,8.54
2023-02-24T06:14:45.809Z,8.60
2023-02-24T06:17:16.916Z,8.50
2023-02-24T06:19:45.454Z,8.49
2023-02-24T06:22:19.137Z,8.54
2023-02-24T06:24:49.217Z,8.63
2023-02-24T06:27:21.654Z,8.88
2023-02-24T06:29:54.552Z,8.89
2023-02-24T06:32:25.616Z,8.94
2023-02-24T06:34:53.941Z,9.02
2023-02-24T06:37:22.868Z,9.09
2023-02-24T06:39:50.207Z,8.84
2023-02-24T06:42:17.120Z,8.87
2023-02-24T06:44:44.421Z,8.84
2023-02-24T06:47:13.812Z,8.90
2023-02-24T06:49:42.870Z,8.84
2023-02-24T06:52:11.667Z,8.77
2023-02-24T06:54:38.808Z,8.94
2023-02-24T06:57:05.899Z,8.82
2023-02-24T06:59:33.023Z,8.91
2023-02-24T07:02:03.321Z,9.05
2023-02-24T07:04:30.932Z,9.15
2023-02-24T07:07:03.403Z,8.92
2023-02-24T07:09:32.092Z,8.81
2023-02-24T07:12:02.468Z,8.88
2023-02-24T07:14:32.638Z,8.98
2023-02-24T07:17:00.542Z,8.93
2023-02-24T07:19:32.360Z,9.05
2023-02-24T07:22:03.549Z,8.91
2023-02-24T07:24:39.191Z,9.00
2023-02-24T07:27:18.127Z,9.05
2023-02-24T07:29:45.198Z,9.26
2023-02-24T07:32:12.308Z,9.25
2023-02-24T07:34:42.222Z,9.19
2023-02-24T07:37:11.222Z,9.18
2023-02-24T07:39:39.961Z,9.15
2023-02-24T07:42:09.547Z,9.22
2023-02-24T07:44:36.551Z,9.30
2023-02-24T07:47:07.933Z,9.33
2023-02-24T07:49:35.946Z,9.35
2023-02-24T07:52:03.173Z,9.53
2023-02-24T07:54:30.509Z,9.50
2023-02-24T07:56:59.664Z,9.42
2023-02-24T07:59:33.969Z,9.67
2023-02-24T08:02:04.716Z,9.47
2023-02-24T08:04:33.036Z,9.32
2023-02-24T08:07:03.636Z,9.35
2023-02-24T08:09:46.063Z,9.35
2023-02-24T08:12:21.507Z,9.47
2023-02-24T08:14:52.674Z,9.40
2023-02-24T08:17:26.482Z,9.17
2023-02-24T08:20:14.514Z,9.32
2023-02-24T08:22:46.720Z,9.63
2023-02-24T08:25:19.047Z,9.51
2023-02-24T08:28:06.950Z,9.48
2023-02-24T08:30:39.436Z,9.53
2023-02-24T08:33:11.826Z,9.77
2023-02-24T08:35:44.447Z,9.79
2023-02-24T08:38:20.337Z,9.90
2023-02-24T08:40:51.721Z,9.83
2023-02-24T08:43:31.048Z,10.02
2023-02-24T08:46:05.295Z,9.80
2023-02-24T08:48:38.843Z,10.00
2023-02-24T08:51:24.265Z,10.16
2023-02-24T08:53:54.185Z,9.96
2023-02-24T08:56:26.035Z,9.89
2023-02-24T08:59:05.194Z,9.86
2023-02-24T09:01:50.734Z,9.94
2023-02-24T09:04:20.760Z,10.15
2023-02-24T09:07:10.756Z,10.07
2023-02-24T09:09:42.222Z,9.95
2023-02-24T09:12:22.368Z,10.09
2023-02-24T09:15:04.546Z,10.03
2023-02-24T09:17:49.668Z,10.10
2023-02-24T09:20:39.613Z,10.20
2023-02-24T09:23:09.708Z,9.94
2023-02-24T09:25:44.847Z,9.90
2023-02-24T09:28:27.378Z,9.70
2023-02-24T09:31:04.761Z,9.74
2023-02-24T09:33:42.616Z,9.72
2023-02-24T09:36:35.905Z,9.72
2023-02-24T09:39:02.942Z,9.75
2023-02-24T09:42:17.989Z,10.04
2023-02-24T09:44:52.797Z,10.52
2023-02-24T09:47:56.535Z,10.84
2023-02-24T09:50:51.301Z,11.16
2023-02-24T09:53:17.220Z,11.27
2023-02-24T09:56:17.163Z,11.07
2023-02-24T09:59:16.220Z,10.67
2023-02-24T10:02:12.104Z,10.83
2023-02-24T10:05:07.286Z,11.08
2023-02-24T10:07:40.905Z,11.03
2023-02-24T10:10:28.268Z,10.95
2023-02-24T10:13:30.543Z,11.03
2023-02-24T10:16:06.960Z,11.24
2023-02-24T10:19:16.108Z,11.13
2023-02-24T10:22:02.923Z,11.10
2023-02-24T10:24:47.296Z,11.10
2023-02-24T10:27:33.188Z,10.78
2023-02-24T10:30:47.599Z,10.75
2023-02-24T10:33:48.575Z,10.91
2023-02-24T10:36:25.871Z,10.90
2023-02-24T10:38:56.031Z,10.96
2023-02-24T10:41:29.335Z,10.87
2023-02-24T10:43:57.957Z,10.93
2023-02-24T10:46:41.191Z,10.89
2023-02-24T10:49:16.352Z,11.08
2023-02-24T10:51:52.388Z,11.10
2023-02-24T10:54:55.896Z,10.93
2023-02-24T10:57:39.430Z,10.84
2023-02-24T11:00:20.955Z,11.03
2023-02-24T11:03:06.962Z,11.17
2023-02-24T11:05:56.580Z,11.29
2023-02-24T11:08:36.746Z,11.29
2023-02-24T11:11:54.824Z,11.07
2023-02-24T11:14:40.297Z,11.11
2023-02-24T11:17:26.945Z,11.40
2023-02-24T11:20:23.982Z,11.59
2023-02-24T11:22:55.761Z,11.60
2023-02-24T11:25:33.774Z,11.77
2023-02-24T11:28:00.790Z,11.72
2023-02-24T11:30:43.390Z,11.92
2023-02-24T11:33:19.107Z,12.00
2023-02-24T11:36:14.741Z,11.80
2023-02-24T11:39:20.509Z,11.85
2023-02-24T11:41:56.010Z,11.69
2023-02-24T11:44:35.118Z,11.37
2023-02-24T11:47:14.162Z,11.30
2023-02-24T11:49:47.532Z,11.58
2023-02-24T11:52:28.330Z,11.83
2023-02-24T11:54:58.234Z,12.19
2023-02-24T11:57:40.868Z,12.75
2023-02-24T12:00:22.233Z,13.01
2023-02-24T12:03:18.793Z,12.78
2023-02-24T12:05:56.814Z,12.55
2023-02-24T12:08:36.236Z,12.40
2023-02-24T12:11:16.439Z,12.39
2023-02-24T12:13:54.139Z,12.16
2023-02-24T12:16:37.471Z,12.32
2023-02-24T12:19:20.179Z,12.00
2023-02-24T12:22:16.148Z,11.58
2023-02-24T12:24:49.965Z,11.50
2023-02-24T12:27:43.708Z,11.60
2023-02-24T12:30:51.920Z,12.00
2023-02-24T12:33:38.670Z,12.14
2023-02-24T12:36:30.582Z,12.33
2023-02-24T12:39:18.378Z,12.37
2023-02-24T12:41:51.462Z,12.46
2023-02-24T12:44:46.705Z,12.36
2023-02-24T12:47:36.896Z,12.31
2023-02-24T12:50:23.651Z,12.15
2023-02-24T12:53:21.707Z,12.05
2023-02-24T12:56:40.014Z,12.47
2023-02-24T12:59:13.274Z,12.35
2023-02-24T13:01:59.626Z,12.33
2023-02-24T13:04:54.302Z,12.32
2023-02-24T13:07:39.651Z,12.42
2023-02-24T13:10:42.527Z,12.57
2023-02-24T13:13:36.914Z,12.77
2023-02-24T13:16:04.002Z,12.64
2023-02-24T13:18:36.985Z,12.36
2023-02-24T13:21:30.202Z,12.57
2023-02-24T13:24:02.785Z,12.46
2023-02-24T13:26:32.446Z,12.46
2023-02-24T13:29:10.462Z,12.60
2023-02-24T13:31:48.907Z,12.57
2023-02-24T13:34:21.865Z,12.77
2023-02-24T13:36:51.023Z,12.65
2023-02-24T13:39:31.621Z,12.65
2023-02-24T13:42:30.766Z,12.78
2023-02-24T13:45:09.901Z,12.99
2023-02-24T13:47:48.714Z,12.91
2023-02-24T13:50:25.380Z,12.64
2023-02-24T13:53:45.701Z,12.55
2023-02-24T13:56:26.340Z,12.59
2023-02-24T13:59:34.339Z,12.56
2023-02-24T14:02:11.694Z,12.72
2023-02-24T14:04:52.399Z,12.77
2023-02-24T14:07:42.213Z,12.69
2023-02-24T14:10:21.059Z,12.78
2023-02-24T14:12:49.695Z,12.69
2023-02-24T14:15:24.123Z,12.74
2023-02-24T14:17:59.871Z,12.74
2023-02-24T14:20:34.935Z,12.91
2023-02-24T14:23:02.492Z,12.81
2023-02-24T14:25:39.447Z,12.81
2023-02-24T14:28:06.580Z,12.58
2023-02-24T14:30:38.955Z,12.71
2023-02-24T14:33:08.466Z,12.69
2023-02-24T14:35:46.021Z,12.44
2023-02-24T14:38:36.557Z,12.57
2023-02-24T14:41:15.013Z,12.71
2023-02-24T14:43:42.942Z,12.59
2023-02-24T14:46:09.928Z,12.17
2023-02-24T14:48:36.931Z,12.22
2023-02-24T14:51:34.913Z,12.26
2023-02-24T14:54:07.117Z,12.38
2023-02-24T14:56:35.655Z,12.43
2023-02-24T14:59:16.805Z,12.39
2023-02-24T15:01:51.991Z,12.45
2023-02-24T15:04:36.894Z,12.49
2023-02-24T15:07:19.684Z,12.32
2023-02-24T15:09:49.123Z,12.35
2023-02-24T15:12:18.937Z,12.21
2023-02-24T15:14:53.882Z,12.12
2023-02-24T15:17:22.688Z,12.25
2023-02-24T15:19:54.639Z,12.23
2023-02-24T15:22:28.230Z,11.85
2023-02-24T15:25:16.224Z,11.79
2023-02-24T15:28:02.396Z,11.80
2023-02-24T15:30:40.842Z,11.71
2023-02-24T15:33:36.368Z,11.51
2023-02-24T15:36:12.788Z,11.69
2023-02-24T15:38:42.924Z,11.64
2023-02-24T15:41:12.106Z,11.44
2023-02-24T15:43:52.838Z,11.23
2023-02-24T15:46:30.256Z,11.26
2023-02-24T15:49:01.670Z,11.30
2023-02-24T15:51:34.297Z,11.36
2023-02-24T15:54:04.486Z,11.48
2023-02-24T15:56:34.232Z,11.51
2023-02-24T15:59:02.541Z,11.49
2023-02-24T16:01:31.050Z,11.15
2023-02-24T16:03:58.459Z,11.07
2023-02-24T16:06:27.247Z,11.09
2023-02-24T16:08:55.837Z,10.99
2023-02-24T16:11:27.860Z,10.90
2023-02-24T16:13:58.747Z,10.88
2023-02-24T16:16:26.877Z,10.94
2023-02-24T16:18:55.029Z,10.87
2023-02-24T16:21:22.123Z,10.85
2023-02-24T16:23:49.118Z,10.84
2023-02-24T16:26:23.874Z,10.87
2023-02-24T16:28:55.594Z,10.80
2023-02-24T16:31:25.128Z,10.70
2023-02-24T16:33:55.441Z,10.74
2023-02-24T16:36:25.449Z,10.64
2023-02-24T16:38:52.814Z,10.68
2023-02-24T16:41:19.891Z,10.75
2023-02-24T16:43:46.857Z,10.68
2023-02-24T16:46:18.305Z,10.63
2023-02-24T16:48:48.549Z,10.59
2023-02-24T16:51:17.755Z,10.58
2023-02-24T16:53:44.758Z,10.56
2023-02-24T16:56:12.585Z,10.62
2023-02-24T16:58:39.489Z,10.59
2023-02-24T17:01:06.694Z,10.45
2023-02-24T17:03:46.849Z,10.47
2023-02-24T17:06:14.556Z,10.34
2023-02-24T17:08:43.747Z,10.52
2023-02-24T17:11:21.188Z,10.42
2023-02-24T17:13:48.167Z,10.22
2023-02-24T17:16:15.294Z,10.35
2023-02-24T17:18:42.293Z,10.26
2023-02-24T17:21:13.491Z,10.18
2023-02-24T17:23:42.483Z,10.23
2023-02-24T17:26:14.681Z,10.10
2023-02-24T17:28:42.001Z,10.24
2023-02-24T17:31:09.295Z,10.24
2023-02-24T17:33:36.363Z,10.33
2023-02-24T17:36:03.391Z,10.31
2023-02-24T17:38:30.390Z,10.20
2023-02-24T17:40:57.764Z,10.21
2023-02-24T17:43:24.860Z,10.07
2023-02-24T17:45:52.998Z,10.20
2023-02-24T17:48:20.597Z,10.06
2023-02-24T17:50:48.576Z,10.07
2023-02-24T17:53:15.712Z,10.10
2023-02-24T17:56:01.128Z,10.08
2023-02-24T17:58:28.730Z,10.18
2023-02-24T18:00:55.660Z,10.06
2023-02-24T18:03:22.998Z,9.90
2023-02-24T18:06:09.585Z,9.90
2023-02-24T18:08:38.658Z,9.91
2023-02-24T18:11:09.658Z,9.89
2023-02-24T18:13:36.553Z,9.92
2023-02-24T18:16:13.773Z,9.97
2023-02-24T18:18:41.269Z,9.86
2023-02-24T18:21:08.720Z,9.89
2023-02-24T18:23:36.703Z,9.86
2023-02-24T18:26:05.459Z,9.83
2023-02-24T18:28:33.588Z,9.74
2023-02-24T18:31:03.165Z,9.72
2023-02-24T18:33:30.503Z,9.77
2023-02-24T18:36:02.168Z,9.82
2023-02-24T18:38:29.766Z,9.66
2023-02-24T18:41:06.174Z,9.72
2023-02-24T18:43:35.540Z,9.69
2023-02-24T18:46:06.282Z,9.69
2023-02-24T18:48:34.752Z,9.67
2023-02-24T18:51:02.374Z,9.66
2023-02-24T18:53:34.170Z,9.61
2023-02-24T18:56:07.385Z,9.65
2023-02-24T18:58:36.996Z,9.65
2023-02-24T19:01:26.939Z,9.53
2023-02-24T19:03:55.371Z,9.56
2023-02-24T19:06:26.705Z,9.60
2023-02-24T19:09:09.764Z,9.58
2023-02-24T19:11:37.917Z,9.52
2023-02-24T19:14:05.809Z,9.58
2023-02-24T19:16:34.462Z,9.57
2023-02-24T19:19:01.474Z,9.60
2023-02-24T19:21:31.516Z,9.64
2023-02-24T19:24:03.908Z,9.62
2023-02-24T19:26:31.154Z,9.58
2023-02-24T19:28:59.254Z,9.57
2023-02-24T19:31:33.103Z,9.58
2023-02-24T19:34:08.285Z,9.49
2023-02-24T19:36:37.191Z,9.58
2023-02-24T19:39:05.841Z,9.48
2023-02-24T19:41:32.938Z,9.58
2023-02-24T19:44:00.027Z,9.55
2023-02-24T19:46:27.274Z,9.57
2023-02-24T19:48:56.755Z,9.44
2023-02-24T19:51:24.581Z,9.46
2023-02-24T19:53:58.158Z,9.49
2023-02-24T19:56:28.330Z,9.53
2023-02-24T19:59:00.201Z,9.53
2023-02-24T20:01:28.937Z,9.45
2023-02-24T20:03:59.505Z,9.33
2023-02-24T20:06:33.708Z,9.32
2023-02-24T20:09:01.334Z,9.33
2023-02-24T20:11:29.802Z,9.46
2023-02-24T20:13:56.922Z,9.65
2023-02-24T20:16:25.748Z,9.55
2023-02-24T20:18:55.361Z,9.45
2023-02-24T20:21:22.843Z,9.48
2023-02-24T20:23:50.598Z,9.46
2023-02-24T20:26:18.484Z,9.25
2023-02-24T20:28:47.002Z,9.31
2023-02-24T20:31:20.864Z,9.09
2023-02-24T20:33:49.885Z,9.15
2023-02-24T20:36:24.489Z,9.06
2023-02-24T20:38:52.600Z,8.76
2023-02-24T20:41:21.650Z,8.31
2023-02-24T20:43:49.373Z,8.35
2023-02-24T20:46:24.306Z,8.36
2023-02-24T20:48:57.640Z,8.39
2023-02-24T20:51:27.345Z,8.23
2023-02-24T20:53:58.060Z,8.26
2023-02-24T20:56:33.053Z,7.98
2023-02-24T20:59:08.291Z,7.65
2023-02-24T21:01:36.874Z,7.48
2023-02-24T21:04:04.651Z,7.37
2023-02-24T21:06:32.115Z,7.28
2023-02-24T21:08:59.293Z,7.33
2023-02-24T21:11:30.076Z,7.47
2023-02-24T21:13:58.252Z,7.37
2023-02-24T21:16:26.964Z,7.29
2023-02-24T21:18:56.285Z,7.29
2023-02-24T21:21:23.586Z,7.36
2023-02-24T21:23:51.343Z,7.29
2023-02-24T21:26:19.143Z,7.36
2023-02-24T21:28:46.475Z,7.30
2023-02-24T21:31:20.297Z,7.37
2023-02-24T21:33:51.905Z,7.37
2023-02-24T21:36:21.584Z,7.46
2023-02-24T21:38:48.965Z,7.77
2023-02-24T21:41:19.304Z,7.66
2023-02-24T21:43:48.155Z,7.70
2023-02-24T21:46:15.948Z,7.59
2023-02-24T21:48:43.145Z,7.55
2023-02-24T21:51:12.838Z,7.60
2023-02-24T21:53:43.818Z,7.63
2023-02-24T21:56:19.086Z,7.66
2023-02-24T21:59:01.525Z,7.63
2023-02-24T22:01:38.091Z,7.75
2023-02-24T22:04:10.101Z,7.65
2023-02-24T22:06:39.026Z,7.77
2023-02-24T22:09:09.313Z,7.96
2023-02-24T22:11:40.733Z,7.80
2023-02-24T22:14:10.458Z,7.88
2023-02-24T22:16:38.129Z,7.90
2023-02-24T22:19:05.322Z,7.90
2023-02-24T22:21:32.951Z,7.83
2023-02-24T22:24:03.636Z,7.85
2023-02-24T22:26:32.102Z,7.64
2023-02-24T22:29:00.789Z,7.78
2023-02-24T22:31:31.947Z,7.78
2023-02-24T22:33:59.907Z,7.77
2023-02-24T22:36:31.797Z,7.56
2023-02-24T22:39:00.794Z,7.56
2023-02-24T22:41:32.798Z,7.74
2023-02-24T22:44:02.859Z,7.84
2023-02-24T22:46:34.622Z,7.92
2023-02-24T22:49:02.936Z,7.93
2023-02-24T22:51:30.028Z,7.81
2023-02-24T22:53:57.463Z,7.80
2023-02-24T22:56:29.166Z,7.78
2023-02-24T22:58:57.540Z,7.79
2023-02-24T23:01:28.441Z,7.74
2023-02-24T23:03:56.178Z,7.79
2023-02-24T23:06:26.233Z,7.61
2023-02-24T23:08:55.105Z,7.65
2023-02-24T23:11:30.770Z,7.67
2023-02-24T23:14:01.263Z,7.69
2023-02-24T23:16:32.282Z,7.58
2023-02-24T23:19:16.803Z,7.64
2023-02-24T23:21:50.660Z,7.62
2023-02-24T23:24:19.173Z,7.57
2023-02-24T23:26:51.306Z,7.58
2023-02-24T23:29:20.477Z,7.73
2023-02-24T23:31:48.599Z,7.79
2023-02-24T23:34:15.923Z,7.66
2023-02-24T23:36:45.842Z,7.34
2023-02-24T23:39:17.233Z,7.46
2023-02-24T23:41:44.320Z,7.37
2023-02-24T23:44:12.413Z,7.47
2023-02-24T23:46:41.694Z,7.56
2023-02-24T23:49:08.700Z,7.51
2023-02-24T23:51:47.431Z,7.43
2023-02-24T23:54:16.947Z,7.28
2023-02-24T23:56:43.920Z,7.45
2023-02-24T23:59:11.840Z,7.50
